Jrs Carina — 5BAN2 — position and weather

sailwx.info

Track history (hours):
 
Tides and Currents Weather Stations Pressure Air Temp Water Temp Dewpoint Dewpoint Depression Visibility Wind Speed Wind Dir Waves Ship Positions

Jrs Carina

Last reported at 2017-Nov-16 06:38 UTC. Time now 2017-Nov-19 05:09 UTC.
Position N 34°50' E 139°15'.

Length 129 m; draft 6.2 m.

Type: Cargo ship. MMSI: 210539000.

Date/timePositionNaut miles runAvg speedWind from/ knotsBaromVisibWave heightAir tempDewpointWater temp
2017-Nov-16 06:38N 34°50' E 139°15'716.4
2017-Nov-16 06:11N 34°55' E 139°23'316.3
2017-Nov-16 06:00N 34°56' E 139°26'816.2
2017-Nov-16 05:30N 35°01' E 139°34'816.4
2017-Nov-16 05:00N 35°06' E 139°42'815.7
2017-Nov-16 04:30N 35°13' E 139°46'612.1
2017-Nov-16 04:00N 35°18' E 139°44'713.6
2017-Nov-16 03:30N 35°25' E 139°42'2 3.4
2017-Nov-16 02:58N 35°26' E 139°41'0 0.0
2017-Nov-16 02:28N 35°26' E 139°41'0 0.0
2017-Nov-16 01:58N 35°26' E 139°41'0 0.0
2017-Nov-16 01:28N 35°26' E 139°41'0 0.0
2017-Nov-16 00:58N 35°26' E 139°41'0 0.0
2017-Nov-16 00:28N 35°26' E 139°41'0 0.0
2017-Nov-15 23:58N 35°26' E 139°41'0 0.0
2017-Nov-15 23:28N 35°26' E 139°41'0 0.0
2017-Nov-15 22:55N 35°26' E 139°41'0 0.0
2017-Nov-15 22:30N 35°26' E 139°41'1 1.1
2017-Nov-15 22:00N 35°27' E 139°41'3 5.4
2017-Nov-15 21:30N 35°26' E 139°44'4 8.2
2017-Nov-15 21:00N 35°28' E 139°49'612.2
2017-Nov-15 20:30N 35°34' E 139°49'2 3.6
2017-Nov-15 19:49N 35°36' E 139°47'0 0.0
2017-Nov-15 19:25N 35°36' E 139°47'0 0.0
2017-Nov-15 18:43N 35°36' E 139°47'0 0.0
2017-Nov-15 18:25N 35°36' E 139°47'0 0.0
2017-Nov-15 17:19N 35°36' E 139°47'0 0.0
2017-Nov-15 16:43N 35°36' E 139°47'0 0.0
2017-Nov-15 16:25N 35°36' E 139°47'0 0.0
2017-Nov-15 15:55N 35°36' E 139°47'0 0.0
2017-Nov-15 15:07N 35°36' E 139°47'0 0.0
2017-Nov-15 14:49N 35°36' E 139°47'0 0.0
2017-Nov-15 14:25N 35°36' E 139°47'0 0.1
2017-Nov-15 13:55N 35°36' E 139°47'0 0.1
2017-Nov-15 13:25N 35°36' E 139°47'0 0.0
2017-Nov-15 12:52N 35°36' E 139°47'0 0.0
2017-Nov-15 12:25N 35°36' E 139°47'0 0.0
2017-Nov-15 11:37N 35°36' E 139°47'0 0.0
2017-Nov-15 11:28N 35°36' E 139°47'0 0.0
2017-Nov-15 10:52N 35°36' E 139°47'0 0.0
2017-Nov-15 10:19N 35°36' E 139°47'0 0.0
2017-Nov-15 09:55N 35°36' E 139°47'0 0.0
2017-Nov-15 09:30N 35°36' E 139°47'1 1.4
2017-Nov-15 08:54N 35°35' E 139°47'4 8.3
2017-Nov-15 08:26N 35°33' E 139°51'2 3.3
2017-Nov-15 07:59N 35°32' E 139°53'4 8.1
2017-Nov-15 07:31N 35°29' E 139°51'714.3
2017-Nov-15 07:01N 35°23' E 139°46'611.5
2017-Nov-15 06:31N 35°17' E 139°45'611.9
2017-Nov-15 06:00N 35°12' E 139°47'713.3
2017-Nov-15 05:30N 35°05' E 139°44'713.3
2017-Nov-15 05:00N 35°01' E 139°38'713.2
2017-Nov-15 04:30N 34°57' E 139°31'  
2017-Nov-12 19:32N 31°05' E 122°59'316.4
2017-Nov-12 19:22N 31°05' E 122°56'2914.7
2017-Nov-12 17:26N 31°06' E 122°23'613.7
2017-Nov-12 17:00N 31°07' E 122°16'814.6
2017-Nov-12 16:28N 31°12' E 122°08'714.6
2017-Nov-12 16:00N 31°15' E 122°01'714.7
2017-Nov-12 15:30N 31°16' E 121°53'714.8
2017-Nov-12 15:00N 31°19' E 121°45'612.1
2017-Nov-12 14:30N 31°21' E 121°38'2 4.8
2017-Nov-12 14:00N 31°22' E 121°36'0 0.0
2017-Nov-12 13:30N 31°22' E 121°36'0 0.0
2017-Nov-12 13:00N 31°22' E 121°36'0 0.0
2017-Nov-12 12:30N 31°22' E 121°36'0 0.0
2017-Nov-12 12:00N 31°22' E 121°36'0 0.0
2017-Nov-12 11:27N 31°22' E 121°36'0 0.0
2017-Nov-12 11:00N 31°22' E 121°36'0 0.0
2017-Nov-12 10:27N 31°22' E 121°36'0 0.0
2017-Nov-12 09:57N 31°22' E 121°36'0 0.0
2017-Nov-12 09:30N 31°22' E 121°36'0 0.0
2017-Nov-12 09:00N 31°22' E 121°36'0 0.0
2017-Nov-12 08:30N 31°22' E 121°36'0 0.0
2017-Nov-12 08:00N 31°22' E 121°36'0 0.0
2017-Nov-12 07:27N 31°22' E 121°36'0 0.0
2017-Nov-12 07:00N 31°22' E 121°36'0 0.0
2017-Nov-12 06:30N 31°22' E 121°36'0 0.0
2017-Nov-12 06:00N 31°22' E 121°36'0 0.0
2017-Nov-12 05:27N 31°22' E 121°36'0 0.0
2017-Nov-12 05:00N 31°22' E 121°36'0 0.0
2017-Nov-12 04:30N 31°22' E 121°36'0 0.0
2017-Nov-12 04:00N 31°22' E 121°36'0 0.0
2017-Nov-12 03:30N 31°22' E 121°36'0 0.0
2017-Nov-12 03:00N 31°22' E 121°36'0 0.0
2017-Nov-12 02:30N 31°22' E 121°36'1 1.5
2017-Nov-12 02:00N 31°22' E 121°37'5 9.2
2017-Nov-12 01:30N 31°20' E 121°41'5 9.3
2017-Nov-12 01:00N 31°16' E 121°45'612.8
2017-Nov-12 00:30N 31°12' E 121°50'612.6
2017-Nov-12 00:00N 31°08' E 121°56'711.8
2017-Nov-11 23:25N 31°05' E 122°03'711.4
2017-Nov-11 22:47N 31°03' E 122°11'68 6.2
2017-Nov-11 11:47N 31°20' E 123°28'59814.3
2017-Nov-09 17:54N 34°32' E 134°43'616.2
2017-Nov-09 17:31N 34°34' E 134°50'816.4
2017-Nov-09 17:00N 34°38' E 134°60'815.4
2017-Nov-09 16:31N 34°36' E 135°09'713.6
2017-Nov-09 16:00N 34°39' E 135°16'1 1.6
2017-Nov-09 15:13N 34°39' E 135°15'0 0.0
2017-Nov-09 14:55N 34°39' E 135°15'0 0.0
2017-Nov-09 13:19N 34°39' E 135°15'0 0.0
2017-Nov-09 12:49N 34°39' E 135°15'0 0.0
2017-Nov-09 12:19N 34°39' E 135°15'0 0.0
2017-Nov-09 11:49N 34°39' E 135°15'0 0.0
2017-Nov-09 11:19N 34°39' E 135°15'0 0.0
2017-Nov-09 10:55N 34°39' E 135°15'0 0.0
2017-Nov-09 10:19N 34°39' E 135°15'0 0.0
2017-Nov-09 09:49N 34°39' E 135°15'0 0.5
2017-Nov-09 09:30N 34°39' E 135°15'3 6.0
2017-Nov-09 09:00N 34°38' E 135°18'510.7
2017-Nov-09 08:30N 34°39' E 135°24'0 0.3
2017-Nov-09 07:52N 34°39' E 135°24'0 0.0
2017-Nov-09 07:28N 34°39' E 135°24'0 0.0
2017-Nov-09 06:10N 34°39' E 135°24'0 0.0
2017-Nov-09 05:46N 34°39' E 135°24'0 0.0
2017-Nov-09 05:16N 34°39' E 135°24'0 0.0
2017-Nov-09 04:58N 34°39' E 135°24'0 0.0
2017-Nov-09 04:22N 34°39' E 135°24'0 0.0
2017-Nov-09 03:58N 34°39' E 135°24'0 0.0
2017-Nov-09 03:28N 34°39' E 135°24'0 0.0
2017-Nov-09 02:58N 34°39' E 135°24'0 0.0
2017-Nov-09 02:28N 34°39' E 135°24'0 0.0
2017-Nov-09 01:58N 34°39' E 135°24'0 0.0
2017-Nov-09 01:28N 34°39' E 135°24'0 0.0
2017-Nov-09 00:58N 34°39' E 135°24'0 0.0
2017-Nov-09 00:28N 34°39' E 135°24'0 0.0
2017-Nov-08 23:58N 34°39' E 135°24'0 0.0
2017-Nov-08 23:28N 34°39' E 135°24'0 0.0
2017-Nov-08 22:58N 34°39' E 135°24'0 0.0
2017-Nov-08 22:30N 34°39' E 135°24'1 2.0
2017-Nov-08 22:00N 34°38' E 135°23'612.6
2017-Nov-08 21:30N 34°36' E 135°16'714.1
2017-Nov-08 21:00N 34°35' E 135°08'813.8
2017-Nov-08 20:25N 34°37' E 134°58'66915.4
2017-Nov-07 01:04N 31°06' E 122°23'311.9
2017-Nov-07 00:48N 31°06' E 122°20'413.6
2017-Nov-07 00:30N 31°08' E 122°15'714.7
2017-Nov-07 00:00N 31°12' E 122°08'714.6
2017-Nov-06 23:30N 31°15' E 122°00'714.9
2017-Nov-06 23:00N 31°16' E 121°52'714.6
2017-Nov-06 22:30N 31°19' E 121°44'612.1
2017-Nov-06 22:01N 31°22' E 121°38'2 4.2
2017-Nov-06 21:30N 31°22' E 121°35'0 0.0
2017-Nov-06 21:00N 31°22' E 121°35'0 0.0
2017-Nov-06 20:30N 31°22' E 121°35'  
Track history (hours):
 
Tides and Currents Weather Stations Pressure Air Temp Water Temp Dewpoint Dewpoint Depression Visibility Wind Speed Wind Dir Waves Ship Positions

Jrs Carina

Last reported at 2017-Nov-16 06:38 UTC. Time now 2017-Nov-19 05:09 UTC.
Position N 34°50' E 139°15'.

Length 129 m; draft 6.2 m.

Type: Cargo ship. MMSI: 210539000.

Date/timePositionNaut miles runAvg speedWind from/ knotsBaromVisibWave heightAir tempDewpointWater temp
2017-Nov-16 06:38N 34°50' E 139°15'716.4
2017-Nov-16 06:11N 34°55' E 139°23'316.3
2017-Nov-16 06:00N 34°56' E 139°26'816.2
2017-Nov-16 05:30N 35°01' E 139°34'816.4
2017-Nov-16 05:00N 35°06' E 139°42'815.7
2017-Nov-16 04:30N 35°13' E 139°46'612.1
2017-Nov-16 04:00N 35°18' E 139°44'713.6
2017-Nov-16 03:30N 35°25' E 139°42'2 3.4
2017-Nov-16 02:58N 35°26' E 139°41'0 0.0
2017-Nov-16 02:28N 35°26' E 139°41'0 0.0
2017-Nov-16 01:58N 35°26' E 139°41'0 0.0
2017-Nov-16 01:28N 35°26' E 139°41'0 0.0
2017-Nov-16 00:58N 35°26' E 139°41'0 0.0
2017-Nov-16 00:28N 35°26' E 139°41'0 0.0
2017-Nov-15 23:58N 35°26' E 139°41'0 0.0
2017-Nov-15 23:28N 35°26' E 139°41'0 0.0
2017-Nov-15 22:55N 35°26' E 139°41'0 0.0
2017-Nov-15 22:30N 35°26' E 139°41'1 1.1
2017-Nov-15 22:00N 35°27' E 139°41'3 5.4
2017-Nov-15 21:30N 35°26' E 139°44'4 8.2
2017-Nov-15 21:00N 35°28' E 139°49'612.2
2017-Nov-15 20:30N 35°34' E 139°49'2 3.6
2017-Nov-15 19:49N 35°36' E 139°47'0 0.0
2017-Nov-15 19:25N 35°36' E 139°47'0 0.0
2017-Nov-15 18:43N 35°36' E 139°47'0 0.0
2017-Nov-15 18:25N 35°36' E 139°47'0 0.0
2017-Nov-15 17:19N 35°36' E 139°47'0 0.0
2017-Nov-15 16:43N 35°36' E 139°47'0 0.0
2017-Nov-15 16:25N 35°36' E 139°47'0 0.0
2017-Nov-15 15:55N 35°36' E 139°47'0 0.0
2017-Nov-15 15:07N 35°36' E 139°47'0 0.0
2017-Nov-15 14:49N 35°36' E 139°47'0 0.0
2017-Nov-15 14:25N 35°36' E 139°47'0 0.1
2017-Nov-15 13:55N 35°36' E 139°47'0 0.1
2017-Nov-15 13:25N 35°36' E 139°47'0 0.0
2017-Nov-15 12:52N 35°36' E 139°47'0 0.0
2017-Nov-15 12:25N 35°36' E 139°47'0 0.0
2017-Nov-15 11:37N 35°36' E 139°47'0 0.0
2017-Nov-15 11:28N 35°36' E 139°47'0 0.0
2017-Nov-15 10:52N 35°36' E 139°47'0 0.0
2017-Nov-15 10:19N 35°36' E 139°47'0 0.0
2017-Nov-15 09:55N 35°36' E 139°47'0 0.0
2017-Nov-15 09:30N 35°36' E 139°47'1 1.4
2017-Nov-15 08:54N 35°35' E 139°47'4 8.3
2017-Nov-15 08:26N 35°33' E 139°51'2 3.3
2017-Nov-15 07:59N 35°32' E 139°53'4 8.1
2017-Nov-15 07:31N 35°29' E 139°51'714.3
2017-Nov-15 07:01N 35°23' E 139°46'611.5
2017-Nov-15 06:31N 35°17' E 139°45'611.9
2017-Nov-15 06:00N 35°12' E 139°47'713.3
2017-Nov-15 05:30N 35°05' E 139°44'713.3
2017-Nov-15 05:00N 35°01' E 139°38'713.2
2017-Nov-15 04:30N 34°57' E 139°31'  
2017-Nov-12 19:32N 31°05' E 122°59'316.4
2017-Nov-12 19:22N 31°05' E 122°56'2914.7
2017-Nov-12 17:26N 31°06' E 122°23'613.7
2017-Nov-12 17:00N 31°07' E 122°16'814.6
2017-Nov-12 16:28N 31°12' E 122°08'714.6
2017-Nov-12 16:00N 31°15' E 122°01'714.7
2017-Nov-12 15:30N 31°16' E 121°53'714.8
2017-Nov-12 15:00N 31°19' E 121°45'612.1
2017-Nov-12 14:30N 31°21' E 121°38'2 4.8
2017-Nov-12 14:00N 31°22' E 121°36'0 0.0
2017-Nov-12 13:30N 31°22' E 121°36'0 0.0
2017-Nov-12 13:00N 31°22' E 121°36'0 0.0
2017-Nov-12 12:30N 31°22' E 121°36'0 0.0
2017-Nov-12 12:00N 31°22' E 121°36'0 0.0
2017-Nov-12 11:27N 31°22' E 121°36'0 0.0
2017-Nov-12 11:00N 31°22' E 121°36'0 0.0
2017-Nov-12 10:27N 31°22' E 121°36'0 0.0
2017-Nov-12 09:57N 31°22' E 121°36'0 0.0
2017-Nov-12 09:30N 31°22' E 121°36'0 0.0
2017-Nov-12 09:00N 31°22' E 121°36'0 0.0
2017-Nov-12 08:30N 31°22' E 121°36'0 0.0
2017-Nov-12 08:00N 31°22' E 121°36'0 0.0
2017-Nov-12 07:27N 31°22' E 121°36'0 0.0
2017-Nov-12 07:00N 31°22' E 121°36'0 0.0
2017-Nov-12 06:30N 31°22' E 121°36'0 0.0
2017-Nov-12 06:00N 31°22' E 121°36'0 0.0
2017-Nov-12 05:27N 31°22' E 121°36'0 0.0
2017-Nov-12 05:00N 31°22' E 121°36'0 0.0
2017-Nov-12 04:30N 31°22' E 121°36'0 0.0
2017-Nov-12 04:00N 31°22' E 121°36'0 0.0
2017-Nov-12 03:30N 31°22' E 121°36'0 0.0
2017-Nov-12 03:00N 31°22' E 121°36'0 0.0
2017-Nov-12 02:30N 31°22' E 121°36'1 1.5
2017-Nov-12 02:00N 31°22' E 121°37'5 9.2
2017-Nov-12 01:30N 31°20' E 121°41'5 9.3
2017-Nov-12 01:00N 31°16' E 121°45'612.8
2017-Nov-12 00:30N 31°12' E 121°50'612.6
2017-Nov-12 00:00N 31°08' E 121°56'711.8
2017-Nov-11 23:25N 31°05' E 122°03'711.4
2017-Nov-11 22:47N 31°03' E 122°11'68 6.2
2017-Nov-11 11:47N 31°20' E 123°28'59814.3
2017-Nov-09 17:54N 34°32' E 134°43'616.2
2017-Nov-09 17:31N 34°34' E 134°50'816.4
2017-Nov-09 17:00N 34°38' E 134°60'815.4
2017-Nov-09 16:31N 34°36' E 135°09'713.6
2017-Nov-09 16:00N 34°39' E 135°16'1 1.6
2017-Nov-09 15:13N 34°39' E 135°15'0 0.0
2017-Nov-09 14:55N 34°39' E 135°15'0 0.0
2017-Nov-09 13:19N 34°39' E 135°15'0 0.0
2017-Nov-09 12:49N 34°39' E 135°15'0 0.0
2017-Nov-09 12:19N 34°39' E 135°15'0 0.0
2017-Nov-09 11:49N 34°39' E 135°15'0 0.0
2017-Nov-09 11:19N 34°39' E 135°15'0 0.0
2017-Nov-09 10:55N 34°39' E 135°15'0 0.0
2017-Nov-09 10:19N 34°39' E 135°15'0 0.0
2017-Nov-09 09:49N 34°39' E 135°15'0 0.5
2017-Nov-09 09:30N 34°39' E 135°15'3 6.0
2017-Nov-09 09:00N 34°38' E 135°18'510.7
2017-Nov-09 08:30N 34°39' E 135°24'0 0.3
2017-Nov-09 07:52N 34°39' E 135°24'0 0.0
2017-Nov-09 07:28N 34°39' E 135°24'0 0.0
2017-Nov-09 06:10N 34°39' E 135°24'0 0.0
2017-Nov-09 05:46N 34°39' E 135°24'0 0.0
2017-Nov-09 05:16N 34°39' E 135°24'0 0.0
2017-Nov-09 04:58N 34°39' E 135°24'0 0.0
2017-Nov-09 04:22N 34°39' E 135°24'0 0.0
2017-Nov-09 03:58N 34°39' E 135°24'0 0.0
2017-Nov-09 03:28N 34°39' E 135°24'0 0.0
2017-Nov-09 02:58N 34°39' E 135°24'0 0.0
2017-Nov-09 02:28N 34°39' E 135°24'0 0.0
2017-Nov-09 01:58N 34°39' E 135°24'0 0.0
2017-Nov-09 01:28N 34°39' E 135°24'0 0.0
2017-Nov-09 00:58N 34°39' E 135°24'0 0.0
2017-Nov-09 00:28N 34°39' E 135°24'0 0.0
2017-Nov-08 23:58N 34°39' E 135°24'0 0.0
2017-Nov-08 23:28N 34°39' E 135°24'0 0.0
2017-Nov-08 22:58N 34°39' E 135°24'0 0.0
2017-Nov-08 22:30N 34°39' E 135°24'1 2.0
2017-Nov-08 22:00N 34°38' E 135°23'612.6
2017-Nov-08 21:30N 34°36' E 135°16'714.1
2017-Nov-08 21:00N 34°35' E 135°08'813.8
2017-Nov-08 20:25N 34°37' E 134°58'66915.4
2017-Nov-07 01:04N 31°06' E 122°23'311.9
2017-Nov-07 00:48N 31°06' E 122°20'413.6
2017-Nov-07 00:30N 31°08' E 122°15'714.7
2017-Nov-07 00:00N 31°12' E 122°08'714.6
2017-Nov-06 23:30N 31°15' E 122°00'714.9
2017-Nov-06 23:00N 31°16' E 121°52'714.6
2017-Nov-06 22:30N 31°19' E 121°44'612.1
2017-Nov-06 22:01N 31°22' E 121°38'2 4.2
2017-Nov-06 21:30N 31°22' E 121°35'0 0.0
2017-Nov-06 21:00N 31°22' E 121°35'0 0.0
2017-Nov-06 20:30N 31°22' E 121°35'  

Dump ship's entire track history